createdAt,value
2022-08-16T00:03:45.568Z,52.60
2022-08-16T00:08:49.106Z,52.84
2022-08-16T00:13:55.734Z,53.29
2022-08-16T00:18:59.545Z,53.26
2022-08-16T00:24:04.684Z,53.17
2022-08-16T00:29:10.298Z,53.39
2022-08-16T00:34:18.334Z,53.60
2022-08-16T00:39:22.112Z,53.37
2022-08-16T00:44:31.810Z,53.56
2022-08-16T00:49:39.489Z,53.77
2022-08-16T00:54:48.095Z,53.72
2022-08-16T00:59:59.049Z,53.74
2022-08-16T01:05:09.632Z,53.65
2022-08-16T01:10:16.158Z,53.61
2022-08-16T01:15:22.104Z,53.56
2022-08-16T01:20:34.049Z,53.82
2022-08-16T01:25:44.245Z,53.97
2022-08-16T01:30:53.546Z,53.96
2022-08-16T01:36:00.277Z,54.10
2022-08-16T01:41:08.479Z,54.23
2022-08-16T01:46:31.244Z,54.75
2022-08-16T01:51:44.480Z,54.50
2022-08-16T01:56:49.353Z,54.47
2022-08-16T02:01:59.735Z,54.74
2022-08-16T02:07:08.899Z,54.54
2022-08-16T02:12:42.078Z,54.53
2022-08-16T02:17:40.801Z,54.46
2022-08-16T02:22:44.342Z,54.42
2022-08-16T02:27:52.069Z,54.69
2022-08-16T02:32:56.012Z,54.74
2022-08-16T02:38:01.852Z,54.71
2022-08-16T02:43:14.114Z,54.54
2022-08-16T02:48:29.848Z,54.48
2022-08-16T02:53:35.155Z,54.29
2022-08-16T02:58:40.294Z,54.04
2022-08-16T03:04:41.057Z,53.81
2022-08-16T03:09:15.001Z,53.54
2022-08-16T03:14:24.583Z,53.16
2022-08-16T03:19:42.194Z,53.28
2022-08-16T03:24:52.194Z,52.53
2022-08-16T03:29:56.916Z,52.34
2022-08-16T03:35:00.284Z,52.31
2022-08-16T03:40:03.968Z,51.92
2022-08-16T03:45:10.341Z,51.63
2022-08-16T03:50:25.896Z,50.81
2022-08-16T03:55:45.099Z,42.54
2022-08-16T04:00:59.303Z,39.27
2022-08-16T04:06:03.065Z,32.04
2022-08-16T04:11:06.857Z,28.03
2022-08-16T04:16:27.161Z,27.24
2022-08-16T04:21:32.484Z,26.27
2022-08-16T04:26:36.312Z,24.22
2022-08-16T04:31:41.027Z,23.25
2022-08-16T04:36:48.908Z,22.07
2022-08-16T04:41:56.915Z,20.70
2022-08-16T04:47:21.633Z,20.25
2022-08-16T04:52:34.166Z,19.04
2022-08-16T04:57:39.389Z,18.61
2022-08-16T05:02:46.966Z,17.88
2022-08-16T05:08:00.221Z,16.08
2022-08-16T05:13:05.866Z,15.85
2022-08-16T05:18:15.790Z,16.41
2022-08-16T05:23:21.100Z,14.36
2022-08-16T05:28:37.366Z,13.86
2022-08-16T05:33:42.517Z,13.37
2022-08-16T05:38:46.950Z,14.25
2022-08-16T05:43:50.539Z,12.50
2022-08-16T05:49:05.801Z,12.40
2022-08-16T05:54:17.429Z,12.77
2022-08-16T05:59:28.460Z,12.67
2022-08-16T06:04:36.507Z,12.31
2022-08-16T06:09:43.759Z,12.30
2022-08-16T06:14:47.906Z,11.22
2022-08-16T06:19:56.258Z,10.97
2022-08-16T06:24:59.640Z,11.58
2022-08-16T06:30:04.087Z,11.37
2022-08-16T06:35:11.900Z,10.86
2022-08-16T06:40:16.053Z,9.57
2022-08-16T06:45:19.708Z,10.48
2022-08-16T06:50:28.680Z,10.40
2022-08-16T06:55:34.819Z,10.55
2022-08-16T07:00:43.035Z,10.88
2022-08-16T07:05:48.132Z,11.35
2022-08-16T07:10:53.220Z,13.03
2022-08-16T07:15:56.910Z,12.47
2022-08-16T07:21:02.324Z,12.80
2022-08-16T07:26:08.864Z,12.85
2022-08-16T07:31:14.349Z,11.80
2022-08-16T07:36:22.181Z,12.10
2022-08-16T07:41:25.698Z,12.64
2022-08-16T07:46:38.471Z,13.17
2022-08-16T07:51:45.043Z,13.37
2022-08-16T07:56:48.487Z,13.22
2022-08-16T08:01:53.304Z,12.62
2022-08-16T08:06:58.130Z,13.67
2022-08-16T08:12:05.578Z,13.31
2022-08-16T08:17:09.353Z,14.27
2022-08-16T08:22:19.257Z,14.46
2022-08-16T08:27:25.994Z,14.64
2022-08-16T08:33:01.823Z,15.79
2022-08-16T08:37:56.399Z,18.06
2022-08-16T08:43:11.968Z,19.35
2022-08-16T08:48:34.927Z,19.79
2022-08-16T08:53:40.539Z,20.93
2022-08-16T08:58:54.846Z,21.73
2022-08-16T09:04:04.845Z,22.56
2022-08-16T09:09:16.863Z,23.04
2022-08-16T09:14:23.886Z,22.97
2022-08-16T09:19:32.212Z,23.22
2022-08-16T09:24:52.607Z,23.54
2022-08-16T09:29:59.845Z,24.11
2022-08-16T09:35:06.719Z,24.86
2022-08-16T09:40:31.863Z,24.37
2022-08-16T09:45:39.241Z,25.03
2022-08-16T09:50:44.587Z,25.50
2022-08-16T09:55:51.255Z,25.79
2022-08-16T10:00:54.920Z,25.04
2022-08-16T10:06:00.178Z,25.99
2022-08-16T10:11:24.622Z,24.90
2022-08-16T10:16:28.496Z,25.95
2022-08-16T10:21:33.321Z,25.74
2022-08-16T10:27:17.190Z,25.40
2022-08-16T10:32:03.518Z,25.48
2022-08-16T10:37:07.162Z,25.24
2022-08-16T10:42:14.365Z,25.06
2022-08-16T10:47:17.895Z,24.44
2022-08-16T10:52:21.299Z,25.62
2022-08-16T10:57:32.851Z,25.80
2022-08-16T11:02:57.879Z,26.29
2022-08-16T11:08:00.549Z,25.17
2022-08-16T11:13:57.267Z,24.74
2022-08-16T11:18:48.187Z,24.87
2022-08-16T11:24:01.421Z,25.39
2022-08-16T11:29:15.275Z,24.46
2022-08-16T11:34:19.765Z,24.78
2022-08-16T11:39:24.632Z,24.57
2022-08-16T11:44:52.519Z,24.67
2022-08-16T11:49:53.318Z,25.89
2022-08-16T11:54:57.218Z,26.02
2022-08-16T12:00:08.118Z,26.15
2022-08-16T12:05:32.230Z,26.71
2022-08-16T12:10:37.696Z,26.38
2022-08-16T12:15:43.927Z,26.07
2022-08-16T12:20:51.122Z,26.49
2022-08-16T12:25:58.814Z,26.42
2022-08-16T12:31:04.635Z,28.01
2022-08-16T12:36:09.927Z,27.97
2022-08-16T12:41:19.096Z,27.05
2022-08-16T12:46:30.912Z,27.97
2022-08-16T12:51:58.208Z,26.94
2022-08-16T12:57:02.524Z,26.96
2022-08-16T13:02:07.834Z,27.38
2022-08-16T13:07:16.359Z,27.32
2022-08-16T13:12:23.812Z,27.41
2022-08-16T13:17:30.486Z,26.96
2022-08-16T13:22:33.909Z,27.01
2022-08-16T13:28:01.681Z,27.13
2022-08-16T13:33:02.342Z,26.87
2022-08-16T13:38:21.622Z,26.99
2022-08-16T13:43:32.590Z,27.07
2022-08-16T13:48:43.977Z,26.92
2022-08-16T13:53:59.524Z,26.80
2022-08-16T13:59:19.133Z,27.13
2022-08-16T14:04:26.583Z,27.14
2022-08-16T14:09:32.326Z,27.30
2022-08-16T14:14:37.481Z,26.95
2022-08-16T14:19:44.886Z,27.29
2022-08-16T14:24:50.573Z,26.88
2022-08-16T14:29:55.388Z,26.90
2022-08-16T14:35:02.029Z,26.79
2022-08-16T14:40:09.664Z,27.25
2022-08-16T14:45:16.095Z,27.35
2022-08-16T14:50:24.033Z,27.19
2022-08-16T14:55:31.965Z,27.81
2022-08-16T15:00:36.769Z,27.73
2022-08-16T15:05:42.548Z,27.84
2022-08-16T15:10:46.383Z,27.81
2022-08-16T15:15:58.784Z,27.62
2022-08-16T15:21:08.422Z,28.00
2022-08-16T15:26:21.547Z,28.65
2022-08-16T15:31:37.395Z,29.13
2022-08-16T15:36:42.998Z,29.12
2022-08-16T15:42:01.162Z,29.44
2022-08-16T15:47:08.042Z,30.06
2022-08-16T15:52:18.338Z,30.37
2022-08-16T15:57:24.281Z,30.53
2022-08-16T16:02:30.912Z,30.32
2022-08-16T16:07:40.633Z,31.07
2022-08-16T16:12:58.126Z,31.08
2022-08-16T16:18:09.599Z,31.24
2022-08-16T16:23:17.750Z,31.96
2022-08-16T16:28:46.349Z,31.84
2022-08-16T16:33:50.325Z,32.03
2022-08-16T16:38:56.045Z,32.12
2022-08-16T16:44:01.403Z,32.79
2022-08-16T16:49:07.631Z,33.24
2022-08-16T16:54:13.011Z,33.58
2022-08-16T16:59:18.773Z,33.69
2022-08-16T17:04:31.587Z,33.99
2022-08-16T17:09:40.231Z,34.20
2022-08-16T17:14:44.136Z,34.67
2022-08-16T17:19:49.580Z,35.28
2022-08-16T17:24:54.899Z,35.76
2022-08-16T17:29:58.736Z,35.90
2022-08-16T17:35:10.192Z,36.37
2022-08-16T17:40:25.507Z,36.78
2022-08-16T17:45:41.011Z,37.52
2022-08-16T17:50:46.089Z,37.82
2022-08-16T17:55:51.829Z,38.19
2022-08-16T18:00:57.526Z,38.53
2022-08-16T18:06:00.957Z,39.54
2022-08-16T18:11:06.003Z,39.26
2022-08-16T18:16:11.637Z,40.42
2022-08-16T18:21:34.037Z,41.80
2022-08-16T18:26:39.677Z,42.14
2022-08-16T18:31:43.386Z,41.11
2022-08-16T18:36:46.700Z,41.29
2022-08-16T18:41:51.696Z,42.30
2022-08-16T18:46:55.097Z,44.13
2022-08-16T18:51:59.224Z,44.13
2022-08-16T18:57:07.887Z,44.40
2022-08-16T19:02:57.644Z,45.69
2022-08-16T19:07:34.876Z,45.49
2022-08-16T19:12:42.215Z,45.05
2022-08-16T19:17:46.717Z,46.33
2022-08-16T19:23:10.457Z,46.16
2022-08-16T19:28:49.708Z,45.53
2022-08-16T19:33:39.734Z,45.26
2022-08-16T19:38:42.889Z,44.28
2022-08-16T19:43:49.190Z,44.81
2022-08-16T19:48:52.561Z,44.90
2022-08-16T19:53:55.877Z,45.12
2022-08-16T20:04:25.935Z,45.29
2022-08-16T20:09:30.108Z,45.33
2022-08-16T20:14:34.883Z,45.57
2022-08-16T20:19:40.545Z,45.80
2022-08-16T20:24:44.792Z,45.80
2022-08-16T20:29:49.902Z,44.83
2022-08-16T20:34:55.671Z,45.69
2022-08-16T20:40:28.307Z,45.77
2022-08-16T20:45:27.075Z,46.26
2022-08-16T20:50:31.528Z,46.37
2022-08-16T20:55:36.148Z,46.79
2022-08-16T21:00:41.334Z,47.01
2022-08-16T21:05:45.458Z,47.17
2022-08-16T21:10:50.143Z,47.68
2022-08-16T21:15:54.607Z,47.26
2022-08-16T21:21:01.641Z,47.63
2022-08-16T21:26:10.866Z,47.60
2022-08-16T21:31:40.887Z,48.09
2022-08-16T21:36:44.430Z,48.22
2022-08-16T21:42:01.259Z,48.97
2022-08-16T21:47:10.129Z,48.84
2022-08-16T21:52:26.195Z,49.12
2022-08-16T21:57:38.305Z,49.30
2022-08-16T22:02:45.611Z,49.37
2022-08-16T22:08:05.552Z,49.68
2022-08-16T22:13:18.454Z,49.95
2022-08-16T22:18:23.793Z,50.09
2022-08-16T22:23:32.062Z,50.35
2022-08-16T22:28:35.895Z,50.45
2022-08-16T22:33:47.468Z,50.87
2022-08-16T22:38:55.844Z,51.06
2022-08-16T22:44:01.173Z,51.37
2022-08-16T22:49:19.537Z,51.26
2022-08-16T22:54:41.486Z,51.60
2022-08-16T22:59:47.252Z,51.54
2022-08-16T23:04:58.566Z,52.10
2022-08-16T23:10:05.694Z,52.05
2022-08-16T23:15:14.028Z,52.16
2022-08-16T23:20:24.255Z,52.25
2022-08-16T23:25:30.502Z,52.52
2022-08-16T23:30:40.515Z,52.61
2022-08-16T23:35:48.261Z,52.71
2022-08-16T23:40:52.151Z,52.92
2022-08-16T23:46:04.021Z,52.93
2022-08-16T23:51:16.417Z,53.19
2022-08-16T23:56:21.676Z,53.61
